Terminal Aerodrome Forecast
Issued by NWS

Current Version | Previous Version | Text Only | Print | Product List | Glossary On
Versions: 1 2 3 4 5 6 7 8 9 10 11 12 13 14 15 16 17 18 19 20 21
000
FTUS44 KMAF 271100
TAFCNM
TAF
KCNM 271121Z 2712/2812 33011KT P6SM FEW130
     FM271400 35013G20KT P6SM BKN035
      TEMPO 2714/2716 BKN015
     FM271800 33019G25KT P6SM BKN050=

USA.gov is the U.S. government's official web portal to all federal, state and local government web resources and services.